Avondale, Kentucky
Current Conditions -  °F | °C
As of 1:53 PM on Friday 19 Dec 2014 (Local Time) from KPAH Reporting Station
Clear Clear  
Wind Chill: 41°   Ceiling: Unl
Heat Index: 41°   Visibility: 10mi
Dew Point: 29°   Wind: 0mph
Humidity: 62%   Direction: NA
Pressure: 30.27"   Gusts: NA
Location:  37.0331°N, 88.716°W
Report Text: KPAH 191953Z 00000KT 10SM CLR 05/M02 A3027 RMK AO2 SLP254 T00501017
Loading
Personal Weather Stations






























Interactive Weather Map New forecast layout! Learn more

10-Day Weather Forecast

Advertisements
Track Severe Weather on mobile